createdAt,value
2023-02-27T00:02:31.499Z,-2.30
2023-02-27T00:07:26.158Z,-2.20
2023-02-27T00:12:18.261Z,-2.10
2023-02-27T00:17:10.276Z,-2.20
2023-02-27T00:22:02.301Z,-2.20
2023-02-27T00:26:54.412Z,-2.30
2023-02-27T00:31:46.561Z,-2.30
2023-02-27T00:36:42.400Z,-2.40
2023-02-27T00:41:34.401Z,-2.30
2023-02-27T00:46:26.497Z,-2.40
2023-02-27T00:51:20.344Z,-2.40
2023-02-27T00:56:12.383Z,-2.40
2023-02-27T01:01:04.568Z,-2.50
2023-02-27T01:05:57.261Z,-2.50
2023-02-27T01:10:50.627Z,-2.50
2023-02-27T01:15:42.772Z,-2.60
2023-02-27T01:20:34.822Z,-2.70
2023-02-27T01:25:26.842Z,-2.60
2023-02-27T01:30:19.018Z,-2.70
2023-02-27T01:35:11.148Z,-2.70
2023-02-27T01:40:05.725Z,-2.80
2023-02-27T01:45:26.061Z,-2.80
2023-02-27T01:50:19.480Z,-2.80
2023-02-27T01:55:13.301Z,-2.80
2023-02-27T02:00:09.349Z,-2.90
2023-02-27T02:17:22.444Z,-3.20
2023-02-27T02:22:33.248Z,-3.20
2023-02-27T02:27:49.830Z,-3.20
2023-02-27T02:33:20.514Z,-3.30
2023-02-27T02:38:37.854Z,-3.30
2023-02-27T02:43:49.424Z,-3.30
2023-02-27T02:48:56.898Z,-3.30
2023-02-27T02:54:04.899Z,-3.40
2023-02-27T02:59:09.809Z,-3.60
2023-02-27T03:04:20.671Z,-3.50
2023-02-27T03:09:16.070Z,-3.40
2023-02-27T03:14:56.563Z,-3.10
2023-02-27T03:19:56.444Z,-2.90
2023-02-27T03:24:52.951Z,-2.70
2023-02-27T03:29:55.789Z,-2.60
2023-02-27T03:34:48.421Z,-2.50
2023-02-27T03:39:48.307Z,-2.40
2023-02-27T03:44:53.767Z,-2.20
2023-02-27T03:49:45.875Z,-2.10
2023-02-27T03:54:49.510Z,-2.00
2023-02-27T03:59:42.450Z,-1.90
2023-02-27T04:04:35.732Z,-1.80
2023-02-27T04:09:58.556Z,-1.80
2023-02-27T04:15:16.149Z,-1.70
2023-02-27T04:20:32.950Z,-1.70
2023-02-27T04:25:35.090Z,-1.60
2023-02-27T04:30:36.451Z,-1.40
2023-02-27T04:35:53.348Z,-1.40
2023-02-27T04:40:57.493Z,-1.40
2023-02-27T04:45:51.569Z,-1.50
2023-02-27T04:50:50.560Z,-1.50
2023-02-27T04:55:51.594Z,-1.30
2023-02-27T05:00:49.963Z,-1.30
2023-02-27T05:05:44.951Z,-1.30
2023-02-27T05:10:53.756Z,-1.10
2023-02-27T05:15:58.395Z,-1.20
2023-02-27T05:21:20.999Z,-1.20
2023-02-27T05:26:34.812Z,-1.10
2023-02-27T05:31:32.831Z,-1.20
2023-02-27T05:36:31.853Z,-1.20
2023-02-27T05:41:33.165Z,-1.30
2023-02-27T05:46:30.425Z,-1.40
2023-02-27T05:51:26.802Z,-1.50
2023-02-27T05:56:23.411Z,-1.50
2023-02-27T06:01:15.704Z,-1.60
2023-02-27T06:06:12.521Z,-1.50
2023-02-27T06:11:04.750Z,-1.40
2023-02-27T06:15:56.808Z,-1.10
2023-02-27T06:20:49.484Z,-1.10
2023-02-27T06:25:44.586Z,-1.00
2023-02-27T06:30:36.874Z,-0.90
2023-02-27T06:35:29.446Z,-0.70
2023-02-27T06:40:21.651Z,-0.60
2023-02-27T06:45:14.986Z,-0.30
2023-02-27T06:50:08.369Z,-0.20
2023-02-27T06:55:00.568Z,0.00
2023-02-27T06:59:52.520Z,0.20
2023-02-27T07:04:44.784Z,0.30
2023-02-27T07:09:37.304Z,0.50
2023-02-27T07:14:29.500Z,0.60
2023-02-27T07:19:23.244Z,0.80
2023-02-27T07:24:15.398Z,1.10
2023-02-27T07:29:07.793Z,1.40
2023-02-27T07:33:59.842Z,1.60
2023-02-27T07:38:52.173Z,2.00
2023-02-27T07:43:44.237Z,2.40
2023-02-27T07:48:36.349Z,2.70
2023-02-27T07:53:28.491Z,2.90
2023-02-27T07:58:20.522Z,3.20
2023-02-27T08:03:12.563Z,3.60
2023-02-27T08:08:04.691Z,4.10
2023-02-27T08:12:56.765Z,4.30
2023-02-27T08:17:48.926Z,4.70
2023-02-27T08:22:42.044Z,4.80
2023-02-27T08:27:35.015Z,4.90
2023-02-27T08:32:27.515Z,4.90
2023-02-27T08:37:19.678Z,5.00
2023-02-27T08:42:12.932Z,4.90
2023-02-27T08:47:05.029Z,5.10
2023-02-27T08:51:57.011Z,5.60
2023-02-27T08:56:49.053Z,6.20
2023-02-27T09:01:41.179Z,6.70
2023-02-27T09:06:38.431Z,7.00
2023-02-27T09:11:31.054Z,7.00
2023-02-27T09:16:23.823Z,6.80
2023-02-27T09:21:16.376Z,6.60
2023-02-27T09:31:53.660Z,6.00
2023-02-27T09:36:45.773Z,6.40
2023-02-27T09:42:17.317Z,6.90
2023-02-27T09:47:23.409Z,7.80
2023-02-27T09:52:15.617Z,8.30
2023-02-27T09:57:16.536Z,7.80
2023-02-27T10:02:48.154Z,7.60
2023-02-27T10:07:43.360Z,7.90
2023-02-27T10:12:45.095Z,8.40
2023-02-27T10:17:43.499Z,8.00
2023-02-27T10:22:42.742Z,7.90
2023-02-27T10:27:35.000Z,7.50
2023-02-27T10:32:33.404Z,6.80
2023-02-27T10:37:27.417Z,6.20
2023-02-27T10:42:19.692Z,5.60
2023-02-27T10:47:16.558Z,5.50
2023-02-27T10:52:15.086Z,5.30
2023-02-27T10:57:23.392Z,5.20
2023-02-27T11:02:20.784Z,5.70
2023-02-27T11:07:18.528Z,6.60
2023-02-27T11:12:26.129Z,7.70
2023-02-27T11:17:32.908Z,8.60
2023-02-27T11:22:30.300Z,8.90
2023-02-27T11:27:29.044Z,9.50
2023-02-27T11:32:24.503Z,9.00
2023-02-27T11:37:32.600Z,8.40
2023-02-27T11:42:36.254Z,8.40
2023-02-27T11:47:38.184Z,8.40
2023-02-27T11:52:53.510Z,9.00
2023-02-27T11:57:59.991Z,9.30
2023-02-27T12:03:25.413Z,9.10
2023-02-27T12:08:50.783Z,8.60
2023-02-27T12:13:49.660Z,8.00
2023-02-27T12:18:50.837Z,8.00
2023-02-27T12:24:02.829Z,8.40
2023-02-27T12:29:15.951Z,8.90
2023-02-27T12:34:29.302Z,8.10
2023-02-27T12:39:23.876Z,7.40
2023-02-27T12:44:54.117Z,7.00
2023-02-27T12:49:51.685Z,7.30
2023-02-27T12:54:58.484Z,7.30
2023-02-27T13:00:10.375Z,7.80
2023-02-27T13:05:34.741Z,8.20
2023-02-27T13:10:59.507Z,7.90
2023-02-27T13:16:00.728Z,8.20
2023-02-27T13:21:24.558Z,8.50
2023-02-27T13:26:25.942Z,8.30
2023-02-27T13:31:57.161Z,7.00
2023-02-27T13:37:03.078Z,5.90
2023-02-27T13:41:55.296Z,5.60
2023-02-27T13:46:47.910Z,5.50
2023-02-27T13:51:41.901Z,5.10
2023-02-27T13:56:34.042Z,5.00
2023-02-27T14:01:28.864Z,5.20
2023-02-27T14:06:25.055Z,5.30
2023-02-27T14:11:27.253Z,5.50
2023-02-27T14:16:38.078Z,5.40
2023-02-27T14:22:02.525Z,5.10
2023-02-27T14:26:55.319Z,5.30
2023-02-27T14:31:47.926Z,5.40
2023-02-27T14:36:55.739Z,5.30
2023-02-27T14:42:05.653Z,5.70
2023-02-27T14:46:58.855Z,5.50
2023-02-27T14:51:51.235Z,5.50
2023-02-27T14:56:58.994Z,5.40
2023-02-27T15:01:52.173Z,5.20
2023-02-27T15:06:47.857Z,5.10
2023-02-27T15:11:42.040Z,4.80
2023-02-27T15:16:40.407Z,4.50
2023-02-27T15:21:38.757Z,4.30
2023-02-27T15:26:40.030Z,4.10
2023-02-27T15:31:32.448Z,4.10
2023-02-27T15:36:31.212Z,4.10
2023-02-27T15:41:23.353Z,3.80
2023-02-27T15:46:15.423Z,3.30
2023-02-27T15:51:09.961Z,3.20
2023-02-27T15:56:06.667Z,3.00
2023-02-27T16:01:04.879Z,3.00
2023-02-27T16:05:57.774Z,3.10
2023-02-27T16:10:51.354Z,3.10
2023-02-27T16:15:44.443Z,3.10
2023-02-27T16:20:54.927Z,3.10
2023-02-27T16:26:23.606Z,3.10
2023-02-27T16:31:36.794Z,2.90
2023-02-27T16:36:31.480Z,2.70
2023-02-27T16:41:24.821Z,2.50
2023-02-27T16:46:22.848Z,2.30
2023-02-27T16:51:17.910Z,2.10
2023-02-27T16:56:13.037Z,2.00
2023-02-27T17:01:05.489Z,2.00
2023-02-27T17:05:58.042Z,2.10
2023-02-27T17:10:50.436Z,2.20
2023-02-27T17:15:42.459Z,2.30
2023-02-27T17:20:35.007Z,2.30
2023-02-27T17:25:28.307Z,2.40
2023-02-27T17:30:21.140Z,2.40
2023-02-27T17:35:13.479Z,2.40
2023-02-27T17:40:08.226Z,2.40
2023-02-27T17:45:01.604Z,2.40
2023-02-27T17:49:53.674Z,2.40
2023-02-27T17:54:45.886Z,2.40
2023-02-27T17:59:37.935Z,2.40
2023-02-27T18:04:30.008Z,2.40
2023-02-27T18:09:22.028Z,2.40
2023-02-27T18:14:14.131Z,2.30
2023-02-27T18:19:07.118Z,2.40
2023-02-27T18:23:59.202Z,2.40
2023-02-27T18:28:53.002Z,2.40
2023-02-27T18:33:45.108Z,2.40
2023-02-27T18:38:37.109Z,2.40
2023-02-27T18:43:29.172Z,2.30
2023-02-27T18:48:21.297Z,2.20
2023-02-27T18:53:13.484Z,2.10
2023-02-27T18:58:06.228Z,2.00
2023-02-27T19:02:58.374Z,1.90
2023-02-27T19:07:50.459Z,2.00
2023-02-27T19:12:43.065Z,1.90
2023-02-27T19:17:35.215Z,1.80
2023-02-27T19:22:30.867Z,1.70
2023-02-27T19:27:23.212Z,1.70
2023-02-27T19:32:15.422Z,1.60
2023-02-27T19:37:09.229Z,1.60
2023-02-27T19:42:01.270Z,1.50
2023-02-27T19:46:53.338Z,1.60
2023-02-27T19:51:45.387Z,1.50
2023-02-27T19:56:37.389Z,1.30
2023-02-27T20:01:32.552Z,1.20
2023-02-27T20:06:26.469Z,1.20
2023-02-27T20:11:20.822Z,1.10
2023-02-27T20:16:15.522Z,1.00
2023-02-27T20:21:10.493Z,0.90
2023-02-27T20:26:19.917Z,1.00
2023-02-27T20:31:13.272Z,1.10
2023-02-27T20:36:11.028Z,1.10
2023-02-27T20:41:03.067Z,1.20
2023-02-27T20:45:56.234Z,1.20
2023-02-27T20:50:48.481Z,1.10
2023-02-27T20:55:49.807Z,1.10
2023-02-27T21:00:44.235Z,1.10
2023-02-27T21:05:36.453Z,1.10
2023-02-27T21:10:28.481Z,1.20
2023-02-27T21:15:20.525Z,1.20
2023-02-27T21:20:13.237Z,1.20
2023-02-27T21:25:05.636Z,1.30
2023-02-27T21:29:57.619Z,1.30
2023-02-27T21:34:49.635Z,1.40
2023-02-27T21:39:41.604Z,1.40
2023-02-27T21:44:33.699Z,1.40
2023-02-27T21:49:28.239Z,1.40
2023-02-27T21:54:21.018Z,1.50
2023-02-27T21:59:14.695Z,1.50
2023-02-27T22:04:07.469Z,1.50
2023-02-27T22:09:01.781Z,1.60
2023-02-27T22:13:54.417Z,1.60
2023-02-27T22:18:47.358Z,1.60
2023-02-27T22:23:39.836Z,1.60
2023-02-27T22:28:33.188Z,1.60
2023-02-27T22:33:25.218Z,1.60
2023-02-27T22:38:17.282Z,1.50
2023-02-27T22:43:11.274Z,1.40
2023-02-27T22:48:03.514Z,1.40
2023-02-27T22:52:55.595Z,1.50
2023-02-27T22:57:50.023Z,1.50
2023-02-27T23:02:42.352Z,1.50
2023-02-27T23:07:34.349Z,1.50
2023-02-27T23:12:27.517Z,1.50
2023-02-27T23:17:19.548Z,1.50
2023-02-27T23:22:11.519Z,1.60
2023-02-27T23:27:16.378Z,1.60
2023-02-27T23:32:17.077Z,1.60
2023-02-27T23:37:09.262Z,1.70
2023-02-27T23:42:01.269Z,1.70
2023-02-27T23:46:53.244Z,1.80
2023-02-27T23:51:45.289Z,1.80
2023-02-27T23:56:37.355Z,1.90
